createdAt,value
2018-06-02T00:01:31.802Z,21.00
2018-06-02T00:04:00.015Z,21.00
2018-06-02T00:06:28.968Z,21.00
2018-06-02T00:08:57.141Z,21.00
2018-06-02T00:11:25.298Z,21.00
2018-06-02T00:13:53.438Z,21.00
2018-06-02T00:16:21.668Z,21.00
2018-06-02T00:18:49.828Z,21.00
2018-06-02T00:21:18.012Z,21.00
2018-06-02T00:23:46.218Z,21.00
2018-06-02T00:26:15.152Z,20.90
2018-06-02T00:28:43.858Z,21.00
2018-06-02T00:31:13.026Z,20.90
2018-06-02T00:33:41.276Z,20.90
2018-06-02T00:36:10.167Z,20.90
2018-06-02T00:38:38.507Z,20.90
2018-06-02T00:41:06.668Z,20.90
2018-06-02T00:43:34.840Z,20.90
2018-06-02T00:46:03.038Z,20.80
2018-06-02T00:48:31.967Z,20.80
2018-06-02T00:51:00.182Z,20.80
2018-06-02T00:53:28.355Z,20.50
2018-06-02T00:55:56.591Z,20.10
2018-06-02T00:58:24.730Z,20.00
2018-06-02T01:00:53.648Z,20.10
2018-06-02T01:03:21.934Z,20.10
2018-06-02T01:05:50.352Z,20.00
2018-06-02T01:08:18.506Z,20.10
2018-06-02T01:10:47.213Z,19.90
2018-06-02T01:13:15.517Z,19.70
2018-06-02T01:15:44.448Z,19.60
2018-06-02T01:18:12.594Z,19.60
2018-06-02T01:20:40.740Z,19.50
2018-06-02T01:23:08.945Z,19.60
2018-06-02T01:25:37.088Z,19.50
2018-06-02T01:28:06.026Z,19.40
2018-06-02T01:30:34.162Z,19.40
2018-06-02T01:33:03.072Z,19.50
2018-06-02T01:35:31.252Z,19.50
2018-06-02T01:37:59.448Z,19.50
2018-06-02T01:40:27.623Z,19.50
2018-06-02T01:42:55.799Z,19.50
2018-06-02T01:45:23.956Z,19.50
2018-06-02T01:47:52.096Z,19.50
2018-06-02T01:50:21.027Z,19.60
2018-06-02T01:52:49.153Z,19.60
2018-06-02T01:55:18.105Z,19.60
2018-06-02T01:57:46.332Z,19.60
2018-06-02T02:00:14.525Z,19.70
2018-06-02T02:02:42.789Z,19.70
2018-06-02T02:05:10.974Z,19.70
2018-06-02T02:07:39.149Z,19.80
2018-06-02T02:10:07.315Z,19.70
2018-06-02T02:12:35.470Z,19.80
2018-06-02T02:15:03.668Z,19.70
2018-06-02T02:17:31.835Z,19.70
2018-06-02T02:20:00.900Z,19.70
2018-06-02T02:22:29.058Z,19.70
2018-06-02T02:24:58.024Z,19.70
2018-06-02T02:27:26.273Z,19.60
2018-06-02T02:29:54.447Z,19.60
2018-06-02T02:32:22.641Z,19.70
2018-06-02T02:34:50.897Z,19.60
2018-06-02T02:37:19.861Z,19.50
2018-06-02T02:39:48.046Z,19.60
2018-06-02T02:42:16.197Z,19.60
2018-06-02T02:44:44.411Z,19.60
2018-06-02T02:47:12.657Z,19.60
2018-06-02T02:49:40.810Z,19.60
2018-06-02T02:52:09.715Z,19.60
2018-06-02T02:54:37.861Z,19.60
2018-06-02T02:57:06.035Z,19.60
2018-06-02T02:59:34.202Z,19.70
2018-06-02T03:02:02.390Z,19.70
2018-06-02T03:04:30.618Z,19.80
2018-06-02T03:06:58.763Z,19.70
2018-06-02T03:09:26.991Z,19.80
2018-06-02T03:11:55.152Z,19.70
2018-06-02T03:14:23.591Z,19.90
2018-06-02T03:16:51.859Z,20.00
2018-06-02T03:19:20.123Z,20.00
2018-06-02T03:21:48.305Z,20.00
2018-06-02T03:24:16.436Z,20.00
2018-06-02T03:26:44.627Z,19.80
2018-06-02T03:29:13.568Z,19.80
2018-06-02T03:31:41.753Z,19.80
2018-06-02T03:34:10.038Z,19.80
2018-06-02T03:36:38.307Z,19.90
2018-06-02T03:39:06.450Z,19.90
2018-06-02T03:41:34.613Z,20.00
2018-06-02T03:44:02.897Z,20.10
2018-06-02T03:46:31.036Z,20.10
2018-06-02T03:48:59.952Z,20.20
2018-06-02T03:51:28.114Z,20.20
2018-06-02T03:53:56.268Z,20.20
2018-06-02T03:56:25.234Z,20.00
2018-06-02T03:58:53.423Z,20.00
2018-06-02T04:01:22.418Z,20.10
2018-06-02T04:03:51.343Z,20.20
2018-06-02T04:06:19.531Z,20.20
2018-06-02T04:08:47.759Z,20.30
2018-06-02T04:11:16.795Z,20.60
2018-06-02T04:13:45.023Z,20.60
2018-06-02T04:16:13.147Z,20.70
2018-06-02T04:18:41.375Z,20.60
2018-06-02T04:21:10.290Z,20.60
2018-06-02T04:23:38.424Z,20.60
2018-06-02T04:26:06.648Z,20.40
2018-06-02T04:28:35.507Z,20.50
2018-06-02T04:31:04.442Z,20.60
2018-06-02T04:33:32.604Z,20.50
2018-06-02T04:36:00.866Z,20.50
2018-06-02T04:38:29.084Z,20.50
2018-06-02T04:40:58.255Z,20.50
2018-06-02T04:43:26.455Z,20.50
2018-06-02T04:45:54.695Z,20.40
2018-06-02T04:48:23.026Z,20.40
2018-06-02T04:50:53.121Z,20.40
2018-06-02T04:53:21.334Z,20.50
2018-06-02T04:58:47.798Z,20.40
2018-06-02T05:01:16.213Z,20.50
2018-06-02T05:03:44.371Z,20.40
2018-06-02T05:06:12.639Z,20.40
2018-06-02T05:08:40.844Z,20.40
2018-06-02T05:11:09.048Z,20.50
2018-06-02T05:13:38.115Z,20.80
2018-06-02T05:16:06.290Z,20.80
2018-06-02T05:18:34.443Z,20.60
2018-06-02T05:21:02.628Z,20.70
2018-06-02T05:23:30.812Z,20.90
2018-06-02T05:25:58.977Z,21.00
2018-06-02T05:28:27.152Z,21.10
2018-06-02T05:30:55.299Z,21.20
2018-06-02T05:33:23.528Z,21.10
2018-06-02T05:35:52.488Z,21.00
2018-06-02T05:38:20.638Z,21.00
2018-06-02T05:40:48.826Z,21.20
2018-06-02T05:43:16.995Z,21.00
2018-06-02T05:45:45.285Z,20.80
2018-06-02T05:48:13.468Z,21.00
2018-06-02T05:50:41.631Z,21.00
2018-06-02T05:53:09.799Z,21.20
2018-06-02T05:55:37.952Z,21.30
2018-06-02T05:58:06.115Z,21.20
2018-06-02T06:00:34.277Z,21.20
2018-06-02T06:03:02.405Z,21.40
2018-06-02T06:05:30.669Z,21.40
2018-06-02T06:07:58.831Z,21.50
2018-06-02T06:10:27.544Z,21.60
2018-06-02T06:12:55.683Z,21.50
2018-06-02T06:15:24.271Z,21.60
2018-06-02T06:17:52.461Z,21.80
2018-06-02T06:20:20.673Z,21.80
2018-06-02T06:22:48.907Z,21.80
2018-06-02T06:25:17.148Z,21.80
2018-06-02T06:27:45.306Z,21.60
2018-06-02T06:30:13.461Z,21.80
2018-06-02T06:32:41.629Z,21.90
2018-06-02T06:35:10.541Z,21.90
2018-06-02T06:37:38.757Z,21.80
2018-06-02T06:40:06.926Z,22.10
2018-06-02T06:42:35.116Z,22.00
2018-06-02T06:45:03.290Z,22.20
2018-06-02T06:47:32.238Z,22.40
2018-06-02T06:50:00.424Z,22.30
2018-06-02T06:52:28.562Z,22.40
2018-06-02T06:54:56.734Z,22.50
2018-06-02T06:57:24.944Z,22.50
2018-06-02T06:59:53.107Z,22.20
2018-06-02T07:02:21.271Z,22.10
2018-06-02T07:04:49.448Z,22.30
2018-06-02T07:07:17.577Z,22.40
2018-06-02T07:09:46.548Z,22.80
2018-06-02T07:12:15.186Z,22.80
2018-06-02T07:14:43.413Z,22.80
2018-06-02T07:17:11.594Z,23.10
2018-06-02T07:19:40.531Z,23.00
2018-06-02T07:22:08.660Z,23.00
2018-06-02T07:24:37.600Z,23.60
2018-06-02T07:27:05.778Z,23.60
2018-06-02T07:29:34.746Z,23.40
2018-06-02T07:32:02.928Z,23.50
2018-06-02T07:34:31.122Z,23.40
2018-06-02T07:36:59.290Z,23.50
2018-06-02T07:39:27.510Z,23.80
2018-06-02T07:41:56.562Z,23.70
2018-06-02T07:44:25.600Z,23.70
2018-06-02T07:46:54.519Z,22.70
2018-06-02T07:49:22.702Z,22.70
2018-06-02T07:51:50.852Z,23.00
2018-06-02T07:54:18.982Z,22.70
2018-06-02T07:56:47.124Z,23.10
2018-06-02T07:59:15.308Z,23.40
2018-06-02T08:01:43.483Z,23.20
2018-06-02T08:04:11.651Z,23.30
2018-06-02T08:06:39.837Z,23.30
2018-06-02T08:09:07.982Z,23.00
2018-06-02T08:11:36.150Z,23.20
2018-06-02T08:14:04.324Z,23.00
2018-06-02T08:16:32.481Z,23.10
2018-06-02T08:19:01.563Z,23.40
2018-06-02T08:21:30.498Z,23.90
2018-06-02T08:23:58.647Z,24.00
2018-06-02T08:26:26.820Z,23.90
2018-06-02T08:28:54.969Z,23.20
2018-06-02T08:31:23.871Z,23.80
2018-06-02T08:33:52.091Z,23.70
2018-06-02T08:36:20.290Z,24.00
2018-06-02T08:38:48.534Z,24.40
2018-06-02T08:41:17.056Z,24.30
2018-06-02T08:43:45.224Z,24.30
2018-06-02T08:46:13.392Z,24.50
2018-06-02T08:48:42.307Z,24.90
2018-06-02T08:51:10.509Z,24.80
2018-06-02T08:53:38.789Z,25.20
2018-06-02T08:56:07.674Z,25.50
2018-06-02T08:58:36.270Z,25.80
2018-06-02T09:01:04.432Z,25.80
2018-06-02T09:03:32.557Z,26.10
2018-06-02T09:06:01.509Z,26.00
2018-06-02T09:08:29.686Z,26.00
2018-06-02T09:10:57.866Z,26.10
2018-06-02T09:13:25.992Z,26.20
2018-06-02T09:15:54.150Z,26.30
2018-06-02T09:18:22.335Z,26.60
2018-06-02T09:20:50.473Z,26.90
2018-06-02T09:23:18.656Z,27.20
2018-06-02T09:25:47.600Z,27.90
2018-06-02T09:28:15.766Z,27.90
2018-06-02T09:30:43.974Z,28.00
2018-06-02T09:33:12.120Z,27.90
2018-06-02T09:35:40.249Z,27.80
2018-06-02T09:38:09.161Z,27.70
2018-06-02T09:40:37.310Z,27.70
2018-06-02T09:43:06.212Z,27.80
2018-06-02T09:45:34.391Z,27.80
2018-06-02T09:48:02.534Z,28.00
2018-06-02T09:50:31.464Z,27.90
2018-06-02T09:52:59.643Z,27.90
2018-06-02T09:55:27.916Z,27.80
2018-06-02T09:57:56.948Z,27.70
2018-06-02T10:00:25.829Z,27.80
2018-06-02T10:02:54.008Z,27.80
2018-06-02T10:05:22.274Z,27.80
2018-06-02T10:07:50.422Z,27.90
2018-06-02T10:10:18.617Z,28.00
2018-06-02T10:12:46.882Z,28.40
2018-06-02T10:15:15.160Z,28.40
2018-06-02T10:17:43.347Z,28.70
2018-06-02T10:20:12.411Z,28.80
2018-06-02T10:22:42.050Z,28.60
2018-06-02T10:25:10.248Z,28.90
2018-06-02T10:27:39.158Z,29.10
2018-06-02T10:30:07.334Z,29.10
2018-06-02T10:32:36.291Z,29.20
2018-06-02T10:35:04.452Z,29.10
2018-06-02T10:37:32.623Z,28.80
2018-06-02T10:40:00.860Z,28.70
2018-06-02T10:42:29.058Z,28.20
2018-06-02T10:44:57.190Z,28.10
2018-06-02T10:47:25.385Z,27.40
2018-06-02T10:49:53.594Z,27.40
2018-06-02T10:52:21.742Z,27.40
2018-06-02T10:54:49.906Z,27.40
2018-06-02T10:57:18.187Z,27.50
2018-06-02T10:59:46.363Z,27.50
2018-06-02T11:02:14.530Z,27.40
2018-06-02T11:04:42.703Z,26.90
2018-06-02T11:07:11.011Z,26.40
2018-06-02T11:09:39.183Z,26.70
2018-06-02T11:12:07.331Z,26.80
2018-06-02T11:14:35.531Z,26.70
2018-06-02T11:17:03.702Z,26.70
2018-06-02T11:19:31.980Z,26.70
2018-06-02T11:22:00.226Z,26.80
2018-06-02T11:24:28.393Z,26.70
2018-06-02T11:26:56.571Z,26.80
2018-06-02T11:29:24.750Z,27.10
2018-06-02T11:31:52.912Z,27.40
2018-06-02T11:34:21.242Z,27.60
2018-06-02T11:36:50.208Z,27.90
2018-06-02T11:39:18.459Z,27.80
2018-06-02T11:41:46.655Z,28.10
2018-06-02T11:44:14.889Z,28.60
2018-06-02T11:46:43.073Z,28.80
2018-06-02T11:49:11.200Z,28.80
2018-06-02T11:51:40.134Z,28.70
2018-06-02T11:54:08.338Z,28.70
2018-06-02T11:56:36.475Z,28.70
2018-06-02T11:59:04.646Z,29.00
2018-06-02T12:01:33.360Z,29.40
2018-06-02T12:04:01.540Z,29.80
2018-06-02T12:06:29.769Z,30.20
2018-06-02T12:08:57.936Z,30.40
2018-06-02T12:11:26.651Z,30.60
2018-06-02T12:13:54.882Z,30.50
2018-06-02T12:16:23.030Z,30.30
2018-06-02T12:18:51.267Z,30.10
2018-06-02T12:21:19.396Z,29.80
2018-06-02T12:23:48.361Z,30.00
2018-06-02T12:26:16.595Z,30.00
2018-06-02T12:28:44.713Z,30.30
2018-06-02T12:31:12.848Z,31.10
2018-06-02T12:33:41.014Z,31.70
2018-06-02T12:36:09.184Z,31.50
2018-06-02T12:38:37.342Z,31.50
2018-06-02T12:41:05.529Z,31.00
2018-06-02T12:43:33.696Z,31.30
2018-06-02T12:46:01.892Z,31.80
2018-06-02T12:48:30.060Z,31.50
2018-06-02T12:50:58.226Z,31.40
2018-06-02T12:53:26.456Z,31.90
2018-06-02T12:55:55.416Z,32.20
2018-06-02T12:58:23.594Z,32.20
2018-06-02T13:00:51.753Z,32.40
2018-06-02T13:03:20.800Z,33.00
2018-06-02T13:05:49.721Z,32.30
2018-06-02T13:08:17.865Z,32.30
2018-06-02T13:10:46.770Z,31.40
2018-06-02T13:13:14.912Z,31.30
2018-06-02T13:15:43.801Z,30.40
2018-06-02T13:18:11.995Z,30.40
2018-06-02T13:20:40.166Z,30.20
2018-06-02T13:23:08.974Z,30.00
2018-06-02T13:25:37.133Z,29.70
2018-06-02T13:28:05.261Z,29.00
2018-06-02T13:30:33.920Z,29.20
2018-06-02T13:33:02.091Z,28.80
2018-06-02T13:35:30.257Z,28.70
2018-06-02T13:37:58.466Z,27.80
2018-06-02T13:40:26.633Z,27.80
2018-06-02T13:42:54.899Z,27.90
2018-06-02T13:45:23.175Z,28.20
2018-06-02T13:47:51.312Z,28.50
2018-06-02T13:50:19.491Z,28.70
2018-06-02T13:52:47.687Z,28.70
2018-06-02T13:55:15.850Z,28.90
2018-06-02T13:57:44.048Z,28.90
2018-06-02T14:00:12.229Z,28.80
2018-06-02T14:02:40.432Z,28.80
2018-06-02T14:05:09.451Z,28.70
2018-06-02T14:07:37.716Z,28.70
2018-06-02T14:10:05.874Z,28.70
2018-06-02T14:12:34.961Z,28.80
2018-06-02T14:15:03.114Z,28.80
2018-06-02T14:17:31.309Z,28.70
2018-06-02T14:20:00.233Z,28.70
2018-06-02T14:22:28.404Z,28.60
2018-06-02T14:24:56.567Z,28.90
2018-06-02T14:27:24.983Z,28.90
2018-06-02T14:29:53.186Z,28.90
2018-06-02T14:32:22.111Z,29.80
2018-06-02T14:34:50.250Z,29.80
2018-06-02T14:37:19.194Z,29.40
2018-06-02T14:39:47.353Z,29.40
2018-06-02T14:42:15.490Z,29.60
2018-06-02T14:44:44.420Z,29.00
2018-06-02T14:47:12.607Z,29.00
2018-06-02T14:49:41.036Z,28.80
2018-06-02T14:52:10.749Z,29.10
2018-06-02T14:54:39.657Z,29.90
2018-06-02T14:57:07.827Z,29.90
2018-06-02T14:59:36.014Z,29.70
2018-06-02T15:02:04.193Z,29.70
2018-06-02T15:04:32.374Z,29.60
2018-06-02T15:07:00.557Z,29.30
2018-06-02T15:09:28.824Z,29.50
2018-06-02T15:11:57.011Z,29.60
2018-06-02T15:14:25.154Z,29.40
2018-06-02T15:16:53.330Z,30.30
2018-06-02T15:19:21.500Z,32.00
2018-06-02T15:21:49.674Z,33.30
2018-06-02T15:24:17.875Z,34.60
2018-06-02T15:26:46.163Z,35.40
2018-06-02T15:29:14.302Z,35.90
2018-06-02T15:31:42.446Z,34.00
2018-06-02T15:34:10.630Z,33.80
2018-06-02T15:36:38.815Z,33.80
2018-06-02T15:39:06.995Z,33.80
2018-06-02T15:41:35.198Z,33.90
2018-06-02T15:44:03.363Z,33.60
2018-06-02T15:46:31.906Z,33.30
2018-06-02T15:49:00.119Z,33.00
2018-06-02T15:51:28.289Z,32.20
2018-06-02T15:53:56.416Z,32.10
2018-06-02T15:56:24.619Z,33.10
2018-06-02T15:58:52.796Z,33.00
2018-06-02T16:01:20.928Z,32.50
2018-06-02T16:03:49.515Z,32.20
2018-06-02T16:06:17.682Z,32.50
2018-06-02T16:08:45.860Z,33.40
2018-06-02T16:11:14.027Z,33.90
2018-06-02T16:13:42.518Z,34.50
2018-06-02T16:16:10.708Z,35.30
2018-06-02T16:18:38.898Z,35.40
2018-06-02T16:21:07.450Z,35.10
2018-06-02T16:23:35.740Z,34.10
2018-06-02T16:26:04.640Z,32.60
2018-06-02T16:28:32.889Z,32.00
2018-06-02T16:31:01.039Z,31.70
2018-06-02T16:33:30.025Z,30.50
2018-06-02T16:35:58.999Z,29.80
2018-06-02T16:38:27.181Z,29.80
2018-06-02T16:40:56.175Z,28.70
2018-06-02T16:43:25.083Z,28.20
2018-06-02T16:45:54.174Z,27.70
2018-06-02T16:48:23.097Z,27.30
2018-06-02T16:50:51.309Z,27.30
2018-06-02T16:53:19.441Z,26.90
2018-06-02T16:55:47.648Z,26.70
2018-06-02T16:58:15.919Z,26.50
2018-06-02T17:00:44.111Z,26.20
2018-06-02T17:03:12.691Z,26.40
2018-06-02T17:05:40.822Z,26.30
2018-06-02T17:08:09.003Z,26.30
2018-06-02T17:10:37.165Z,26.40
2018-06-02T17:13:05.334Z,26.10
2018-06-02T17:15:33.521Z,26.00
2018-06-02T17:18:01.795Z,25.70
2018-06-02T17:20:29.920Z,25.50
2018-06-02T17:22:58.855Z,25.70
2018-06-02T17:25:27.330Z,25.70
2018-06-02T17:27:55.493Z,25.70
2018-06-02T17:30:23.681Z,25.40
2018-06-02T17:32:51.850Z,25.10
2018-06-02T17:35:20.055Z,25.00
2018-06-02T17:37:48.229Z,24.80
2018-06-02T17:40:16.420Z,24.70
2018-06-02T17:42:45.393Z,24.40
2018-06-02T17:45:13.981Z,24.40
2018-06-02T17:47:42.168Z,24.30
2018-06-02T17:50:10.425Z,24.10
2018-06-02T17:52:38.599Z,24.10
2018-06-02T17:55:06.745Z,23.90
2018-06-02T17:57:34.930Z,23.90
2018-06-02T18:00:03.061Z,23.90
2018-06-02T18:02:31.238Z,24.00
2018-06-02T18:04:59.422Z,23.80
2018-06-02T18:07:27.558Z,23.70
2018-06-02T18:09:56.478Z,23.70
2018-06-02T18:12:24.646Z,23.60
2018-06-02T18:14:52.778Z,23.40
2018-06-02T18:17:21.038Z,23.40
2018-06-02T18:19:49.210Z,23.40
2018-06-02T18:22:17.811Z,23.40
2018-06-02T18:24:45.987Z,23.30
2018-06-02T18:27:14.944Z,23.40
2018-06-02T18:29:43.115Z,23.40
2018-06-02T18:32:11.359Z,23.30
2018-06-02T18:34:39.542Z,23.30
2018-06-02T18:37:08.585Z,23.30
2018-06-02T18:39:36.778Z,23.00
2018-06-02T18:42:05.733Z,22.60
2018-06-02T18:44:33.930Z,22.60
2018-06-02T18:47:02.858Z,22.20
2018-06-02T18:49:31.025Z,22.10
2018-06-02T18:51:59.223Z,22.00
2018-06-02T18:54:27.427Z,22.00
2018-06-02T18:56:56.428Z,21.90
2018-06-02T18:59:24.591Z,21.90
2018-06-02T19:01:52.757Z,22.00
2018-06-02T19:04:20.900Z,22.00
2018-06-02T19:06:49.156Z,21.90
2018-06-02T19:09:17.350Z,21.90
2018-06-02T19:11:45.503Z,21.90
2018-06-02T19:14:13.736Z,21.90
2018-06-02T19:16:41.867Z,21.80
2018-06-02T19:19:10.077Z,21.80
2018-06-02T19:21:38.346Z,21.80
2018-06-02T19:24:06.519Z,21.80
2018-06-02T19:26:34.659Z,21.80
2018-06-02T19:29:02.805Z,21.70
2018-06-02T19:31:31.731Z,21.80
2018-06-02T19:33:59.950Z,21.80
2018-06-02T19:36:28.854Z,21.70
2018-06-02T19:38:57.804Z,21.80
2018-06-02T19:41:26.600Z,21.80
2018-06-02T19:43:54.753Z,21.90
2018-06-02T19:46:22.929Z,21.80
2018-06-02T19:48:51.093Z,21.80
2018-06-02T19:51:19.245Z,21.70
2018-06-02T19:53:47.410Z,21.60
2018-06-02T19:56:15.541Z,21.50
2018-06-02T19:58:43.710Z,21.50
2018-06-02T20:01:11.857Z,21.50
2018-06-02T20:03:40.012Z,21.50
2018-06-02T20:06:08.149Z,21.70
2018-06-02T20:08:37.075Z,21.70
2018-06-02T20:11:05.237Z,21.70
2018-06-02T20:13:34.138Z,21.70
2018-06-02T20:16:02.261Z,21.70
2018-06-02T20:18:30.473Z,21.80
2018-06-02T20:20:58.635Z,21.80
2018-06-02T20:23:26.815Z,21.80
2018-06-02T20:25:54.968Z,21.80
2018-06-02T20:28:23.890Z,21.90
2018-06-02T20:30:52.054Z,21.90
2018-06-02T20:33:20.430Z,22.00
2018-06-02T20:35:48.634Z,22.00
2018-06-02T20:38:16.798Z,22.00
2018-06-02T20:40:45.599Z,21.90
2018-06-02T20:43:13.895Z,21.80
2018-06-02T20:45:42.058Z,21.80
2018-06-02T20:48:10.237Z,21.70
2018-06-02T20:50:38.411Z,21.60
2018-06-02T20:53:06.608Z,21.50
2018-06-02T20:55:35.559Z,21.60
2018-06-02T20:58:03.760Z,21.50
2018-06-02T21:00:31.880Z,21.60
2018-06-02T21:03:00.041Z,21.70
2018-06-02T21:05:28.225Z,21.60
2018-06-02T21:07:56.455Z,21.60
2018-06-02T21:10:24.603Z,21.60
2018-06-02T21:12:52.776Z,21.60
2018-06-02T21:15:21.039Z,21.70
2018-06-02T21:17:49.221Z,21.70
2018-06-02T21:20:18.186Z,21.60
2018-06-02T21:22:46.491Z,21.60
2018-06-02T21:25:14.659Z,21.60
2018-06-02T21:27:43.320Z,21.50
2018-06-02T21:30:11.477Z,21.50
2018-06-02T21:32:39.628Z,21.50
2018-06-02T21:35:08.572Z,21.40
2018-06-02T21:37:36.834Z,21.40
2018-06-02T21:40:05.007Z,21.40
2018-06-02T21:42:33.861Z,21.50
2018-06-02T21:45:02.883Z,21.40
2018-06-02T21:47:31.061Z,21.40
2018-06-02T21:49:59.231Z,21.40
2018-06-02T21:52:27.405Z,21.40
2018-06-02T21:54:55.585Z,21.40
2018-06-02T21:57:23.739Z,21.40
2018-06-02T21:59:51.948Z,21.30
2018-06-02T22:02:20.131Z,21.30
2018-06-02T22:04:48.304Z,21.30
2018-06-02T22:07:16.576Z,21.20
2018-06-02T22:09:44.709Z,21.20
2018-06-02T22:12:13.604Z,21.00
2018-06-02T22:14:41.766Z,21.00
2018-06-02T22:17:09.907Z,21.00
2018-06-02T22:19:38.340Z,21.00
2018-06-02T22:22:06.518Z,20.90
2018-06-02T22:24:34.723Z,20.90
2018-06-02T22:27:02.869Z,20.80
2018-06-02T22:29:31.032Z,20.80
2018-06-02T22:31:59.153Z,20.80
2018-06-02T22:34:28.070Z,20.90
2018-06-02T22:36:56.242Z,20.90
2018-06-02T22:39:24.417Z,20.90
2018-06-02T22:41:52.566Z,21.00
2018-06-02T22:44:21.478Z,21.00
2018-06-02T22:46:49.682Z,21.00
2018-06-02T22:49:17.885Z,21.00
2018-06-02T22:54:56.392Z,21.00
2018-06-02T22:57:25.760Z,21.10
2018-06-02T22:59:55.139Z,21.20
2018-06-02T23:02:24.441Z,21.20
2018-06-02T23:04:53.677Z,21.20
2018-06-02T23:07:23.098Z,21.20
2018-06-02T23:09:52.289Z,21.30
2018-06-02T23:12:21.492Z,21.30
2018-06-02T23:14:50.692Z,21.20
2018-06-02T23:17:19.935Z,21.30
2018-06-02T23:19:49.189Z,21.40
2018-06-02T23:22:50.622Z,21.30
2018-06-02T23:25:19.838Z,21.40
2018-06-02T23:27:49.054Z,21.30
2018-06-02T23:30:18.235Z,21.30
2018-06-02T23:32:47.372Z,21.30
2018-06-02T23:35:16.533Z,21.20
2018-06-02T23:37:45.734Z,21.30
2018-06-02T23:40:14.888Z,21.30
2018-06-02T23:42:44.152Z,21.30
2018-06-02T23:45:13.362Z,21.20
2018-06-02T23:47:42.561Z,21.30
2018-06-02T23:50:11.757Z,21.20
2018-06-02T23:52:40.909Z,21.30
2018-06-02T23:55:10.119Z,21.30
2018-06-02T23:57:39.321Z,21.30
